createdAt,value
2022-08-22T00:03:37.255Z,13.38
2022-08-22T00:03:43.249Z,13.17
2022-08-22T00:04:47.331Z,13.20
2022-08-22T00:05:50.903Z,13.21
2022-08-22T00:06:50.369Z,13.20
2022-08-22T00:12:57.681Z,13.21
2022-08-22T00:13:17.619Z,13.12
2022-08-22T00:14:04.459Z,13.15
2022-08-22T00:15:08.249Z,13.20
2022-08-22T00:16:18.843Z,13.22
2022-08-22T00:17:05.793Z,13.22
2022-08-22T00:18:02.600Z,13.20
2022-08-22T00:19:07.031Z,13.21
2022-08-22T00:20:03.858Z,13.18
2022-08-22T00:21:02.824Z,13.18
2022-08-22T00:22:18.166Z,13.14
2022-08-22T00:26:11.035Z,13.09
2022-08-22T00:42:47.885Z,12.96
2022-08-22T00:42:57.904Z,13.12
2022-08-22T00:44:09.143Z,13.18
2022-08-22T00:45:17.501Z,13.21
2022-08-22T00:46:00.365Z,13.22
2022-08-22T00:46:58.406Z,13.22
2022-08-22T00:47:57.742Z,13.20
2022-08-22T01:00:13.942Z,13.09
2022-08-22T01:09:15.597Z,13.06
2022-08-22T01:10:15.628Z,13.04
2022-08-22T01:11:19.705Z,13.03
2022-08-22T01:12:15.641Z,13.00
2022-08-22T01:13:15.592Z,12.97
2022-08-22T01:14:16.880Z,12.93
2022-08-22T01:15:15.618Z,12.93
2022-08-22T01:16:15.834Z,12.97
2022-08-22T01:17:18.205Z,13.00
2022-08-22T01:18:15.570Z,12.97
2022-08-22T01:19:15.574Z,12.95
2022-08-22T01:20:15.540Z,12.93
2022-08-22T01:21:17.369Z,12.92
2022-08-22T01:22:15.514Z,12.89
2022-08-22T01:23:15.541Z,12.93
2022-08-22T01:24:15.937Z,12.92
2022-08-22T01:25:16.187Z,12.89
2022-08-22T01:26:15.537Z,12.87
2022-08-22T01:27:15.480Z,12.85
2022-08-22T01:28:15.470Z,12.81
2022-08-22T01:29:15.480Z,12.79
2022-08-22T01:30:15.449Z,12.77
2022-08-22T01:31:15.722Z,12.77
2022-08-22T01:32:15.869Z,12.77
2022-08-22T01:33:15.724Z,12.74
2022-08-22T01:34:15.456Z,12.75
2022-08-22T01:35:15.432Z,12.74
2022-08-22T01:36:16.654Z,12.74
2022-08-22T01:37:15.385Z,12.71
2022-08-22T01:38:17.233Z,12.70
2022-08-22T01:39:16.670Z,12.70
2022-08-22T01:40:20.080Z,12.69
2022-08-22T01:41:15.399Z,12.64
2022-08-22T01:42:15.372Z,12.63
2022-08-22T01:43:17.114Z,12.62
2022-08-22T01:44:17.978Z,12.62
2022-08-22T01:45:17.395Z,12.69
2022-08-22T01:46:20.591Z,12.71
2022-08-22T01:47:15.318Z,12.70
2022-08-22T01:48:16.967Z,12.69
2022-08-22T01:49:15.301Z,12.63
2022-08-22T01:50:15.257Z,12.60
2022-08-22T01:51:15.258Z,12.60
2022-08-22T01:52:16.028Z,12.60
2022-08-22T01:53:15.268Z,12.56
2022-08-22T01:54:17.046Z,12.54
2022-08-22T01:55:15.252Z,12.52
2022-08-22T01:56:15.216Z,12.52
2022-08-22T01:57:15.735Z,12.52
2022-08-22T01:58:15.204Z,12.56
2022-08-22T01:59:15.223Z,12.62
2022-08-22T02:00:15.194Z,12.63
2022-08-22T02:01:15.203Z,12.63
2022-08-22T02:02:15.158Z,12.62
2022-08-22T02:03:15.152Z,12.62
2022-08-22T02:04:15.198Z,12.57
2022-08-22T02:05:15.167Z,12.54
2022-08-22T02:06:15.128Z,12.56
2022-08-22T02:07:15.121Z,12.57
2022-08-22T02:08:15.092Z,12.57
2022-08-22T02:09:16.807Z,12.57
2022-08-22T02:10:15.117Z,12.52
2022-08-22T02:11:15.353Z,12.52
2022-08-22T02:12:21.921Z,12.54
2022-08-22T02:13:15.066Z,12.54
2022-08-22T02:14:15.064Z,12.56
2022-08-22T02:15:15.069Z,12.59
2022-08-22T02:16:15.725Z,12.62
2022-08-22T02:17:15.029Z,12.63
2022-08-22T02:18:15.115Z,12.66
2022-08-22T02:19:14.999Z,12.67
2022-08-22T02:20:17.624Z,12.66
2022-08-22T02:21:15.013Z,12.66
2022-08-22T02:22:14.973Z,12.63
2022-08-22T02:23:16.750Z,12.63
2022-08-22T02:24:14.949Z,12.62
2022-08-22T02:25:14.937Z,12.62
2022-08-22T02:26:17.690Z,12.59
2022-08-22T02:27:14.951Z,12.59
2022-08-22T02:28:14.934Z,12.63
2022-08-22T02:29:14.935Z,12.62
2022-08-22T02:30:14.924Z,12.63
2022-08-22T02:31:17.026Z,12.63
2022-08-22T02:32:17.513Z,12.64
2022-08-22T02:33:15.693Z,12.63
2022-08-22T02:34:14.896Z,12.62
2022-08-22T02:35:15.368Z,12.63
2022-08-22T02:36:14.865Z,12.63
2022-08-22T02:37:14.863Z,12.63
2022-08-22T02:38:14.828Z,12.63
2022-08-22T02:39:16.647Z,12.63
2022-08-22T02:40:14.997Z,12.63
2022-08-22T02:41:14.797Z,12.60
2022-08-22T02:42:14.811Z,12.57
2022-08-22T02:43:14.794Z,12.54
2022-08-22T02:44:14.769Z,12.51
2022-08-22T02:45:14.777Z,12.51
2022-08-22T02:46:14.791Z,12.51
2022-08-22T02:47:16.431Z,12.51
2022-08-22T02:48:14.760Z,12.52
2022-08-22T02:49:16.449Z,12.54
2022-08-22T02:50:14.759Z,12.52
2022-08-22T02:51:14.710Z,12.52
2022-08-22T02:52:14.724Z,12.54
2022-08-22T02:53:15.171Z,12.54
2022-08-22T02:54:14.729Z,12.56
2022-08-22T02:55:14.716Z,12.54
2022-08-22T02:56:16.489Z,12.54
2022-08-22T02:57:17.342Z,12.52
2022-08-22T02:58:16.828Z,12.51
2022-08-22T02:59:16.342Z,12.49
2022-08-22T03:00:27.757Z,12.46
2022-08-22T03:01:14.660Z,12.46
2022-08-22T03:02:14.626Z,12.45
2022-08-22T03:03:14.629Z,12.46
2022-08-22T03:04:14.603Z,12.42
2022-08-22T03:05:14.591Z,12.44
2022-08-22T03:06:14.570Z,12.42
2022-08-22T03:07:14.587Z,12.41
2022-08-22T03:08:14.593Z,12.39
2022-08-22T03:09:15.353Z,12.37
2022-08-22T03:10:14.554Z,12.37
2022-08-22T03:11:14.532Z,12.37
2022-08-22T03:12:14.535Z,12.37
2022-08-22T03:13:14.524Z,12.31
2022-08-22T03:14:14.533Z,12.30
2022-08-22T03:15:14.541Z,12.29
2022-08-22T03:16:14.491Z,12.27
2022-08-22T03:17:14.486Z,12.26
2022-08-22T03:18:17.113Z,12.23
2022-08-22T03:19:18.973Z,12.21
2022-08-22T03:20:15.718Z,12.23
2022-08-22T03:21:14.451Z,12.21
2022-08-22T03:22:14.470Z,12.24
2022-08-22T03:23:16.179Z,12.26
2022-08-22T03:24:15.196Z,12.26
2022-08-22T03:25:14.401Z,12.26
2022-08-22T03:26:14.395Z,12.29
2022-08-22T03:27:14.407Z,12.26
2022-08-22T03:28:14.394Z,12.21
2022-08-22T03:29:14.388Z,12.19
2022-08-22T03:30:14.386Z,12.16
2022-08-22T03:31:14.357Z,12.16
2022-08-22T03:32:14.354Z,12.16
2022-08-22T03:33:14.378Z,12.19
2022-08-22T03:34:16.150Z,12.19
2022-08-22T03:35:14.345Z,12.20
2022-08-22T03:36:14.314Z,12.19
2022-08-22T03:37:17.191Z,12.19
2022-08-22T03:38:14.608Z,12.16
2022-08-22T03:39:17.337Z,12.13
2022-08-22T03:40:16.233Z,12.12
2022-08-22T03:41:14.253Z,12.12
2022-08-22T03:42:14.259Z,12.15
2022-08-22T03:43:14.242Z,12.16
2022-08-22T03:44:14.259Z,12.15
2022-08-22T03:45:14.296Z,12.15
2022-08-22T03:46:14.213Z,12.15
2022-08-22T03:47:14.221Z,12.20
2022-08-22T03:48:14.207Z,12.21
2022-08-22T03:49:14.184Z,12.21
2022-08-22T03:50:16.984Z,12.16
2022-08-22T03:51:14.886Z,12.15
2022-08-22T03:52:15.862Z,12.15
2022-08-22T03:53:18.845Z,12.13
2022-08-22T03:54:16.793Z,12.13
2022-08-22T03:55:16.197Z,12.11
2022-08-22T03:56:15.701Z,12.08
2022-08-22T03:57:16.878Z,12.04
2022-08-22T03:58:28.069Z,12.02
2022-08-22T03:59:14.593Z,12.02
2022-08-22T04:00:14.177Z,12.02
2022-08-22T04:03:04.679Z,12.19
2022-08-22T04:04:04.980Z,12.21
2022-08-22T04:05:13.503Z,12.21
2022-08-22T04:06:11.517Z,12.16
2022-08-22T04:07:05.903Z,12.13
2022-08-22T04:08:04.967Z,12.12
2022-08-22T04:09:04.885Z,12.12
2022-08-22T04:10:04.889Z,12.11
2022-08-22T04:11:04.882Z,12.06
2022-08-22T04:12:04.855Z,12.06
2022-08-22T04:13:04.867Z,12.02
2022-08-22T04:14:04.851Z,12.02
2022-08-22T04:15:04.836Z,12.04
2022-08-22T04:16:04.818Z,12.04
2022-08-22T04:17:04.843Z,12.05
2022-08-22T04:18:04.818Z,12.04
2022-08-22T04:19:04.814Z,12.02
2022-08-22T04:20:04.804Z,12.04
2022-08-22T04:21:04.802Z,12.04
2022-08-22T04:22:04.762Z,12.02
2022-08-22T04:23:04.788Z,12.01
2022-08-22T04:24:04.758Z,11.96
2022-08-22T04:25:07.776Z,11.93
2022-08-22T04:26:12.338Z,11.90
2022-08-22T04:27:04.736Z,11.93
2022-08-22T04:28:04.749Z,11.89
2022-08-22T04:29:04.721Z,11.87
2022-08-22T04:30:04.715Z,11.85
2022-08-22T04:31:04.702Z,11.86
2022-08-22T04:32:04.706Z,11.86
2022-08-22T04:33:04.699Z,11.85
2022-08-22T04:34:04.664Z,11.86
2022-08-22T04:35:04.686Z,11.86
2022-08-22T04:36:04.656Z,11.94
2022-08-22T04:37:04.665Z,11.99
2022-08-22T04:38:04.650Z,12.05
2022-08-22T04:39:04.625Z,12.11
2022-08-22T04:40:04.666Z,12.16
2022-08-22T04:41:04.947Z,12.20
2022-08-22T04:42:30.721Z,12.23
2022-08-22T04:43:04.629Z,12.24
2022-08-22T04:44:04.570Z,12.26
2022-08-22T04:45:04.582Z,12.27
2022-08-22T04:46:05.186Z,12.34
2022-08-22T04:47:04.550Z,12.52
2022-08-22T04:48:04.558Z,12.70
2022-08-22T04:49:04.548Z,12.95
2022-08-22T04:50:04.556Z,13.17
2022-08-22T04:51:04.520Z,13.38
2022-08-22T04:52:04.925Z,13.59
2022-08-22T04:53:04.536Z,13.79
2022-08-22T04:54:04.488Z,13.92
2022-08-22T04:55:04.483Z,14.04
2022-08-22T04:56:07.501Z,14.16
2022-08-22T04:57:04.474Z,14.25
2022-08-22T04:58:06.425Z,14.34
2022-08-22T04:59:04.483Z,14.39
2022-08-22T05:00:04.433Z,14.44
2022-08-22T05:01:04.442Z,14.46
2022-08-22T05:02:04.463Z,14.47
2022-08-22T05:03:04.432Z,14.52
2022-08-22T05:04:04.426Z,14.54
2022-08-22T05:05:04.399Z,14.56
2022-08-22T05:06:04.396Z,14.62
2022-08-22T05:07:04.410Z,14.67
2022-08-22T05:08:04.376Z,14.64
2022-08-22T05:09:04.380Z,14.61
2022-08-22T05:10:09.379Z,14.49
2022-08-22T05:11:04.348Z,14.34
2022-08-22T05:12:04.345Z,14.20
2022-08-22T05:13:04.351Z,14.06
2022-08-22T05:14:04.317Z,13.98
2022-08-22T05:15:04.315Z,13.95
2022-08-22T05:16:04.314Z,13.91
2022-08-22T05:17:04.289Z,13.87
2022-08-22T05:18:04.272Z,13.83
2022-08-22T05:19:04.286Z,13.81
2022-08-22T05:20:04.286Z,13.83
2022-08-22T05:21:04.251Z,13.83
2022-08-22T05:22:04.237Z,13.83
2022-08-22T05:23:07.476Z,13.80
2022-08-22T05:24:04.255Z,13.79
2022-08-22T05:25:04.221Z,13.80
2022-08-22T05:26:04.203Z,13.80
2022-08-22T05:27:04.204Z,13.79
2022-08-22T05:28:04.200Z,13.81
2022-08-22T05:29:04.222Z,13.80
2022-08-22T05:30:04.184Z,13.81
2022-08-22T05:31:04.199Z,13.88
2022-08-22T05:32:04.153Z,13.89
2022-08-22T05:33:04.164Z,13.91
2022-08-22T05:34:04.165Z,13.91
2022-08-22T05:35:04.155Z,13.91
2022-08-22T05:36:04.125Z,13.89
2022-08-22T05:37:04.133Z,13.88
2022-08-22T05:38:04.127Z,13.88
2022-08-22T05:39:04.103Z,13.91
2022-08-22T05:40:04.158Z,13.92
2022-08-22T05:41:04.101Z,13.95
2022-08-22T05:42:04.080Z,14.01
2022-08-22T05:43:04.099Z,14.06
2022-08-22T05:44:04.045Z,14.20
2022-08-22T05:45:04.049Z,14.35
2022-08-22T05:46:04.056Z,14.47
2022-08-22T05:47:04.032Z,14.57
2022-08-22T05:48:04.047Z,14.68
2022-08-22T05:49:04.014Z,14.72
2022-08-22T05:50:03.997Z,14.80
2022-08-22T05:51:03.999Z,14.83
2022-08-22T05:52:04.051Z,14.86
2022-08-22T05:53:04.020Z,14.88
2022-08-22T05:54:04.001Z,14.95
2022-08-22T05:55:03.965Z,15.02
2022-08-22T05:56:03.990Z,15.08
2022-08-22T05:57:07.803Z,15.13
2022-08-22T05:58:03.927Z,15.21
2022-08-22T05:59:03.977Z,15.27
2022-08-22T06:00:03.961Z,15.33
2022-08-22T06:01:03.913Z,15.42
2022-08-22T06:02:03.939Z,15.51
2022-08-22T06:03:03.890Z,15.59
2022-08-22T06:04:03.914Z,15.67
2022-08-22T06:05:06.548Z,15.74
2022-08-22T06:06:03.869Z,15.76
2022-08-22T06:07:03.877Z,15.82
2022-08-22T06:08:03.879Z,15.84
2022-08-22T06:09:03.866Z,15.88
2022-08-22T06:10:03.862Z,15.92
2022-08-22T06:11:03.837Z,15.93
2022-08-22T06:12:03.843Z,15.88
2022-08-22T06:13:03.841Z,15.85
2022-08-22T06:14:03.833Z,15.85
2022-08-22T06:15:11.767Z,15.85
2022-08-22T06:16:03.774Z,15.85
2022-08-22T06:17:03.764Z,15.85
2022-08-22T06:18:03.754Z,15.86
2022-08-22T06:19:03.770Z,15.88
2022-08-22T06:20:03.752Z,15.88
2022-08-22T06:21:03.745Z,15.89
2022-08-22T06:22:03.715Z,15.93
2022-08-22T06:23:03.710Z,15.94
2022-08-22T06:24:03.725Z,16.03
2022-08-22T06:25:03.690Z,16.14
2022-08-22T06:26:03.685Z,16.25
2022-08-22T06:27:03.694Z,16.35
2022-08-22T06:28:03.704Z,16.42
2022-08-22T06:29:03.673Z,16.50
2022-08-22T06:30:04.088Z,16.60
2022-08-22T06:31:03.637Z,16.65
2022-08-22T06:32:03.638Z,16.67
2022-08-22T06:33:03.638Z,16.65
2022-08-22T06:34:03.638Z,16.67
2022-08-22T06:35:03.651Z,16.68
2022-08-22T06:36:03.596Z,16.68
2022-08-22T06:37:03.588Z,16.73
2022-08-22T06:38:03.575Z,16.71
2022-08-22T06:39:03.596Z,16.75
2022-08-22T06:40:03.623Z,16.75
2022-08-22T06:41:03.574Z,16.77
2022-08-22T06:42:03.544Z,16.80
2022-08-22T06:43:03.594Z,16.80
2022-08-22T06:44:03.520Z,16.86
2022-08-22T06:45:03.530Z,16.95
2022-08-22T06:46:03.533Z,16.99
2022-08-22T06:47:03.519Z,17.06
2022-08-22T06:48:03.773Z,17.13
2022-08-22T06:49:03.533Z,17.14
2022-08-22T06:50:03.468Z,17.08
2022-08-22T06:51:03.465Z,17.06
2022-08-22T06:52:03.467Z,17.07
2022-08-22T06:53:03.453Z,17.06
2022-08-22T06:54:03.449Z,17.07
2022-08-22T06:55:03.447Z,17.08
2022-08-22T06:56:03.419Z,17.13
2022-08-22T06:57:03.410Z,17.15
2022-08-22T06:58:03.402Z,17.25
2022-08-22T06:59:03.401Z,17.30
2022-08-22T07:00:03.414Z,17.36
2022-08-22T07:01:11.896Z,17.44
2022-08-22T07:02:03.437Z,17.48
2022-08-22T07:03:03.361Z,17.53
2022-08-22T07:04:03.343Z,17.53
2022-08-22T07:05:03.359Z,17.55
2022-08-22T07:06:03.406Z,17.59
2022-08-22T07:07:03.333Z,17.66
2022-08-22T07:08:03.319Z,17.70
2022-08-22T07:09:06.704Z,17.76
2022-08-22T07:10:03.314Z,17.81
2022-08-22T07:11:03.287Z,17.85
2022-08-22T07:12:03.277Z,17.89
2022-08-22T07:13:03.275Z,17.94
2022-08-22T07:14:03.272Z,18.00
2022-08-22T07:15:03.290Z,18.03
2022-08-22T07:16:03.244Z,18.10
2022-08-22T07:17:03.233Z,18.13
2022-08-22T07:18:03.230Z,18.17
2022-08-22T07:19:03.215Z,18.19
2022-08-22T07:20:03.226Z,18.22
2022-08-22T07:21:03.243Z,18.24
2022-08-22T07:22:03.203Z,18.33
2022-08-22T07:23:03.181Z,18.39
2022-08-22T07:24:03.170Z,18.40
2022-08-22T07:25:03.171Z,18.40
2022-08-22T07:26:03.175Z,18.44
2022-08-22T07:27:04.114Z,18.49
2022-08-22T07:28:03.888Z,18.54
2022-08-22T07:29:03.306Z,18.57
2022-08-22T07:30:03.138Z,18.58
2022-08-22T07:31:03.123Z,18.61
2022-08-22T07:32:03.100Z,18.65
2022-08-22T07:33:25.267Z,18.68
2022-08-22T07:34:03.095Z,18.73
2022-08-22T07:35:03.083Z,18.77
2022-08-22T07:36:03.123Z,18.84
2022-08-22T07:37:03.068Z,18.84
2022-08-22T07:38:03.052Z,18.84
2022-08-22T07:39:03.039Z,18.86
2022-08-22T07:40:03.129Z,18.83
2022-08-22T07:41:03.014Z,18.86
2022-08-22T07:42:03.034Z,18.92
2022-08-22T07:43:03.007Z,18.97
2022-08-22T07:44:03.013Z,19.02
2022-08-22T07:45:02.983Z,19.08
2022-08-22T07:46:02.985Z,19.10
2022-08-22T07:47:02.982Z,19.11
2022-08-22T07:48:03.142Z,19.15
2022-08-22T07:49:10.405Z,19.17
2022-08-22T07:50:02.952Z,19.17
2022-08-22T07:51:02.940Z,19.17
2022-08-22T07:52:02.964Z,19.20
2022-08-22T07:53:02.913Z,19.18
2022-08-22T07:54:02.907Z,19.17
2022-08-22T07:55:02.904Z,19.20
2022-08-22T07:56:02.887Z,19.21
2022-08-22T07:57:02.903Z,19.25
2022-08-22T07:58:03.920Z,19.29
2022-08-22T07:59:13.150Z,19.33
2022-08-22T08:00:02.853Z,19.40
2022-08-22T08:01:12.392Z,19.46
2022-08-22T08:02:02.856Z,19.47
2022-08-22T08:03:02.840Z,19.50
2022-08-22T08:04:02.816Z,19.50
2022-08-22T08:05:02.815Z,19.51
2022-08-22T08:06:11.444Z,19.51
2022-08-22T08:07:02.835Z,19.54
2022-08-22T08:08:02.832Z,19.57
2022-08-22T08:09:02.789Z,19.57
2022-08-22T08:10:02.780Z,19.60
2022-08-22T08:11:02.770Z,19.63
2022-08-22T08:12:02.751Z,19.66
2022-08-22T08:13:03.059Z,19.63
2022-08-22T08:14:02.735Z,19.61
2022-08-22T08:15:02.717Z,19.60
2022-08-22T08:16:02.734Z,19.58
2022-08-22T08:17:02.705Z,19.60
2022-08-22T08:18:02.709Z,19.61
2022-08-22T08:19:02.680Z,19.65
2022-08-22T08:20:02.706Z,19.65
2022-08-22T08:21:02.674Z,19.66
2022-08-22T08:22:02.656Z,19.66
2022-08-22T08:23:02.660Z,19.60
2022-08-22T08:24:02.649Z,19.60
2022-08-22T08:25:02.630Z,19.61
2022-08-22T08:26:02.635Z,19.65
2022-08-22T08:27:02.643Z,19.63
2022-08-22T08:28:02.687Z,19.60
2022-08-22T08:29:02.595Z,19.63
2022-08-22T08:30:02.596Z,19.69
2022-08-22T08:31:02.580Z,19.75
2022-08-22T08:32:02.568Z,19.79
2022-08-22T08:33:25.738Z,19.88
2022-08-22T08:34:02.593Z,19.93
2022-08-22T08:35:02.542Z,20.00
2022-08-22T08:36:03.925Z,20.06
2022-08-22T08:37:02.521Z,20.12
2022-08-22T08:38:02.516Z,20.16
2022-08-22T08:39:02.576Z,20.21
2022-08-22T08:40:02.522Z,20.24
2022-08-22T08:41:02.495Z,20.28
2022-08-22T08:42:02.507Z,20.31
2022-08-22T08:43:02.492Z,20.30
2022-08-22T08:44:02.513Z,20.33
2022-08-22T08:45:02.474Z,20.39
2022-08-22T08:46:02.449Z,20.43
2022-08-22T08:47:02.446Z,20.49
2022-08-22T08:48:02.447Z,20.56
2022-08-22T08:49:02.419Z,20.56
2022-08-22T08:50:02.430Z,20.59
2022-08-22T08:51:02.398Z,20.59
2022-08-22T08:52:02.396Z,20.56
2022-08-22T08:53:02.401Z,20.53
2022-08-22T08:54:02.391Z,20.53
2022-08-22T08:55:02.399Z,20.53
2022-08-22T08:56:02.392Z,20.56
2022-08-22T08:57:02.350Z,20.62
2022-08-22T08:58:05.097Z,20.66
2022-08-22T08:59:02.351Z,20.69
2022-08-22T09:00:02.330Z,20.76
2022-08-22T09:01:02.436Z,20.79
2022-08-22T09:02:02.312Z,20.81
2022-08-22T09:40:29.842Z,20.86
2022-08-22T09:40:34.618Z,21.79
2022-08-22T09:41:34.674Z,21.85
2022-08-22T09:42:34.594Z,21.85
2022-08-22T09:43:34.608Z,21.79
2022-08-22T09:44:34.575Z,21.71
2022-08-22T09:45:34.580Z,21.61
2022-08-22T09:46:36.723Z,21.54
2022-08-22T09:47:34.639Z,21.48
2022-08-22T09:48:34.574Z,21.45
2022-08-22T09:49:34.550Z,21.45
2022-08-22T09:50:34.526Z,21.44
2022-08-22T09:51:34.524Z,21.39
2022-08-22T09:52:36.780Z,21.32
2022-08-22T09:53:34.529Z,21.32
2022-08-22T09:54:34.507Z,21.35
2022-08-22T09:55:35.258Z,21.42
2022-08-22T09:56:34.473Z,21.45
2022-08-22T09:57:34.520Z,21.50
2022-08-22T09:58:38.829Z,21.59
2022-08-22T09:59:34.457Z,21.63
2022-08-22T10:00:34.437Z,21.67
2022-08-22T10:01:34.518Z,21.74
2022-08-22T10:02:34.474Z,21.79
2022-08-22T10:03:34.415Z,21.83
2022-08-22T10:04:34.400Z,21.85
2022-08-22T10:05:40.893Z,21.83
2022-08-22T10:06:34.389Z,21.91
2022-08-22T10:07:34.459Z,21.95
2022-08-22T10:08:34.389Z,22.01
2022-08-22T10:09:34.394Z,22.09
2022-08-22T10:10:34.356Z,22.17
2022-08-22T10:11:34.345Z,22.19
2022-08-22T10:12:36.483Z,22.25
2022-08-22T10:13:34.368Z,22.31
2022-08-22T10:14:34.316Z,22.35
2022-08-22T10:15:34.339Z,22.41
2022-08-22T10:16:34.304Z,22.39
2022-08-22T10:17:34.360Z,22.29
2022-08-22T10:18:34.294Z,22.31
2022-08-22T10:19:34.291Z,22.27
2022-08-22T10:20:34.261Z,22.20
2022-08-22T10:21:34.284Z,22.19
2022-08-22T10:22:34.247Z,22.23
2022-08-22T10:23:34.239Z,22.28
2022-08-22T10:24:34.243Z,22.32
2022-08-22T10:25:34.229Z,22.41
2022-08-22T10:26:38.530Z,22.44
2022-08-22T10:27:34.211Z,22.47
2022-08-22T10:28:34.221Z,22.44
2022-08-22T10:29:34.221Z,22.41
2022-08-22T10:30:34.184Z,22.41
2022-08-22T10:31:34.178Z,22.49
2022-08-22T10:32:34.167Z,22.54
2022-08-22T10:33:34.157Z,22.64
2022-08-22T10:34:34.154Z,22.68
2022-08-22T10:35:34.379Z,22.69
2022-08-22T10:36:34.121Z,22.57
2022-08-22T10:37:34.130Z,22.53
2022-08-22T10:38:36.120Z,22.53
2022-08-22T10:39:34.105Z,22.60
2022-08-22T10:40:34.114Z,22.64
2022-08-22T10:41:34.113Z,22.65
2022-08-22T10:42:35.463Z,22.77
2022-08-22T10:43:34.131Z,22.90
2022-08-22T10:44:34.054Z,23.02
2022-08-22T10:45:36.407Z,23.09
2022-08-22T10:46:34.068Z,23.15
2022-08-22T10:47:34.033Z,23.24
2022-08-22T10:48:34.016Z,23.27
2022-08-22T10:49:34.011Z,23.34
2022-08-22T10:52:15.633Z,23.46
2022-08-22T10:53:05.686Z,23.35
2022-08-22T10:54:05.677Z,23.27
2022-08-22T10:55:09.906Z,23.08
2022-08-22T10:56:05.672Z,23.05
2022-08-22T10:57:06.783Z,23.01
2022-08-22T10:58:05.631Z,23.05
2022-08-22T10:59:05.631Z,23.05
2022-08-22T11:00:05.638Z,23.09
2022-08-22T11:01:37.793Z,23.15
2022-08-22T11:02:05.676Z,23.29
2022-08-22T11:03:10.689Z,23.42
2022-08-22T11:04:05.603Z,23.52
2022-08-22T11:05:05.592Z,23.55
2022-08-22T11:06:05.565Z,23.53
2022-08-22T11:07:05.559Z,23.64
2022-08-22T11:08:05.561Z,23.62
2022-08-22T11:09:05.559Z,23.72
2022-08-22T11:10:05.531Z,23.83
2022-08-22T11:11:05.524Z,23.95
2022-08-22T11:12:05.526Z,24.04
2022-08-22T11:13:05.547Z,24.08
2022-08-22T11:14:05.504Z,24.05
2022-08-22T11:15:05.492Z,24.13
2022-08-22T11:16:05.479Z,24.13
2022-08-22T11:17:27.407Z,24.07
2022-08-22T11:18:05.504Z,24.02
2022-08-22T11:19:14.890Z,23.92
2022-08-22T11:20:05.452Z,23.92
2022-08-22T11:21:07.308Z,23.89
2022-08-22T11:22:05.449Z,23.82
2022-08-22T11:23:05.424Z,23.76
2022-08-22T11:24:05.428Z,23.71
2022-08-22T11:25:05.426Z,23.77
2022-08-22T11:26:05.510Z,23.80
2022-08-22T11:27:07.230Z,23.80
2022-08-22T11:28:05.382Z,23.71
2022-08-22T11:29:13.181Z,23.61
2022-08-22T11:30:05.370Z,23.61
2022-08-22T11:31:07.108Z,23.62
2022-08-22T11:32:07.871Z,23.65
2022-08-22T11:33:05.510Z,23.71
2022-08-22T11:34:05.815Z,23.72
2022-08-22T11:35:09.219Z,23.77
2022-08-22T11:36:05.303Z,23.71
2022-08-22T11:37:11.735Z,23.67
2022-08-22T11:38:05.302Z,23.65
2022-08-22T11:39:05.310Z,23.65
2022-08-22T11:40:05.362Z,23.58
2022-08-22T11:41:05.280Z,23.53
2022-08-22T11:42:05.249Z,23.52
2022-08-22T11:43:05.806Z,23.46
2022-08-22T11:44:05.232Z,23.42
2022-08-22T11:45:05.236Z,23.39
2022-08-22T11:46:05.212Z,23.42
2022-08-22T11:47:05.243Z,23.40
2022-08-22T11:48:05.217Z,23.40
2022-08-22T11:49:05.195Z,23.38
2022-08-22T11:50:10.763Z,23.40
2022-08-22T11:51:13.305Z,23.53
2022-08-22T11:52:05.167Z,23.53
2022-08-22T11:53:07.741Z,23.50
2022-08-22T11:54:05.153Z,23.47
2022-08-22T11:55:05.134Z,23.50
2022-08-22T11:56:05.393Z,23.58
2022-08-22T11:57:05.118Z,23.64
2022-08-22T11:58:05.121Z,23.70
2022-08-22T11:59:05.121Z,23.76
2022-08-22T12:00:05.085Z,23.79
2022-08-22T12:01:05.081Z,23.82
2022-08-22T12:02:05.125Z,23.86
2022-08-22T12:03:05.088Z,23.89
2022-08-22T12:04:05.089Z,23.90
2022-08-22T12:05:05.050Z,23.80
2022-08-22T12:06:05.033Z,23.75
2022-08-22T12:07:05.030Z,23.64
2022-08-22T12:08:05.047Z,23.46
2022-08-22T12:09:05.018Z,23.24
2022-08-22T12:10:04.992Z,23.14
2022-08-22T12:11:04.993Z,23.11
2022-08-22T12:12:04.978Z,23.05
2022-08-22T12:13:04.969Z,22.97
2022-08-22T12:14:06.340Z,22.90
2022-08-22T12:15:04.953Z,22.92
2022-08-22T12:16:04.936Z,22.90
2022-08-22T12:17:04.939Z,22.86
2022-08-22T12:18:04.931Z,22.86
2022-08-22T12:19:04.959Z,22.90
2022-08-22T12:20:20.161Z,22.96
2022-08-22T12:21:04.901Z,23.04
2022-08-22T12:22:04.889Z,23.08
2022-08-22T12:23:05.361Z,23.11
2022-08-22T12:24:05.972Z,23.17
2022-08-22T12:25:04.855Z,23.22
2022-08-22T12:26:05.021Z,23.31
2022-08-22T12:27:07.913Z,23.46
2022-08-22T12:28:04.840Z,23.60
2022-08-22T12:29:04.864Z,23.71
2022-08-22T12:30:04.835Z,23.85
2022-08-22T12:31:04.821Z,23.94
2022-08-22T12:32:04.840Z,24.02
2022-08-22T12:33:04.786Z,24.04
2022-08-22T12:34:04.771Z,23.98
2022-08-22T12:35:14.086Z,23.95
2022-08-22T12:36:04.818Z,23.90
2022-08-22T12:37:04.755Z,23.82
2022-08-22T12:38:28.134Z,23.62
2022-08-22T12:39:04.742Z,23.49
2022-08-22T12:40:04.772Z,23.38
2022-08-22T12:41:07.992Z,23.31
2022-08-22T12:42:04.719Z,23.29
2022-08-22T12:43:04.729Z,23.26
2022-08-22T12:44:04.714Z,23.24
2022-08-22T12:45:04.736Z,23.20
2022-08-22T12:46:04.667Z,23.17
2022-08-22T12:47:04.667Z,23.17
2022-08-22T12:48:04.650Z,23.19
2022-08-22T12:49:07.612Z,23.19
2022-08-22T12:50:04.643Z,23.20
2022-08-22T12:51:17.572Z,23.26
2022-08-22T12:52:04.818Z,23.34
2022-08-22T12:53:04.617Z,23.46
2022-08-22T12:54:04.694Z,23.60
2022-08-22T12:55:04.600Z,23.68
2022-08-22T12:56:04.598Z,23.75
2022-08-22T12:57:04.576Z,23.77
2022-08-22T12:58:04.692Z,23.85
2022-08-22T12:59:04.583Z,23.92
2022-08-22T13:00:04.551Z,23.95
2022-08-22T13:01:04.691Z,23.92
2022-08-22T13:02:04.530Z,23.90
2022-08-22T13:03:04.588Z,23.90
2022-08-22T13:04:04.543Z,23.94
2022-08-22T13:05:04.513Z,23.90
2022-08-22T13:06:04.494Z,23.82
2022-08-22T13:07:04.545Z,23.77
2022-08-22T13:08:05.232Z,23.62
2022-08-22T13:09:04.476Z,23.60
2022-08-22T13:10:04.469Z,23.58
2022-08-22T13:11:10.003Z,23.52
2022-08-22T13:12:04.498Z,23.42
2022-08-22T13:13:12.349Z,23.26
2022-08-22T13:14:04.444Z,23.12
2022-08-22T13:15:04.443Z,23.01
2022-08-22T13:16:04.665Z,22.92
2022-08-22T13:17:10.172Z,22.82
2022-08-22T13:18:25.200Z,22.72
2022-08-22T13:19:07.777Z,22.65
2022-08-22T13:20:04.393Z,22.62
2022-08-22T13:21:04.373Z,22.64
2022-08-22T13:22:04.376Z,22.69
2022-08-22T13:23:04.371Z,22.72
2022-08-22T13:24:04.349Z,22.75
2022-08-22T13:25:04.945Z,22.77
2022-08-22T13:26:07.593Z,22.80
2022-08-22T13:27:05.641Z,22.86
2022-08-22T13:28:04.671Z,22.94
2022-08-22T13:29:24.519Z,23.08
2022-08-22T13:30:04.297Z,23.11
2022-08-22T13:31:04.283Z,23.14
2022-08-22T13:32:04.272Z,23.17
2022-08-22T13:33:04.315Z,23.19
2022-08-22T13:34:04.257Z,23.23
2022-08-22T13:35:04.255Z,23.35
2022-08-22T13:36:04.251Z,23.45
2022-08-22T13:37:04.259Z,23.53
2022-08-22T13:38:04.571Z,23.57
2022-08-22T13:39:04.217Z,23.65
2022-08-22T13:40:04.361Z,23.72
2022-08-22T13:41:04.206Z,23.75
2022-08-22T13:42:04.184Z,23.71
2022-08-22T13:43:04.235Z,23.68
2022-08-22T13:44:04.194Z,23.67
2022-08-22T13:45:04.394Z,23.52
2022-08-22T13:46:04.176Z,23.39
2022-08-22T13:47:13.943Z,23.27
2022-08-22T13:48:04.174Z,23.24
2022-08-22T13:49:04.155Z,23.22
2022-08-22T13:50:05.101Z,23.22
2022-08-22T13:51:04.145Z,23.15
2022-08-22T13:52:04.171Z,23.14
2022-08-22T13:53:04.138Z,23.11
2022-08-22T13:54:11.114Z,23.19
2022-08-22T13:55:04.825Z,23.20
2022-08-22T13:56:04.078Z,23.19
2022-08-22T13:57:04.199Z,23.20
2022-08-22T13:58:04.682Z,23.20
2022-08-22T13:59:04.069Z,23.22
2022-08-22T14:00:09.359Z,23.23
2022-08-22T14:01:04.082Z,23.26
2022-08-22T14:02:04.128Z,23.35
2022-08-22T14:03:05.354Z,23.45
2022-08-22T14:04:04.030Z,23.53
2022-08-22T14:05:04.258Z,23.58
2022-08-22T14:06:32.497Z,23.64
2022-08-22T14:07:04.366Z,23.67
2022-08-22T14:08:04.555Z,23.72
2022-08-22T14:09:04.046Z,23.75
2022-08-22T14:10:04.785Z,23.77
2022-08-22T14:11:06.964Z,23.77
2022-08-22T14:12:03.930Z,23.79
2022-08-22T14:13:03.931Z,23.79
2022-08-22T14:14:03.979Z,23.77
2022-08-22T14:15:03.900Z,23.80
2022-08-22T14:16:03.894Z,23.86